Time;durP1;ratioP1;P1;durP2;ratioP2;P2;SDS_P1;SDS_P2;PMS_P1;PMS_P2;Temp;Humidity;BMP_temperature;BMP_pressure;BME280_temperature;BME280_humidity;BME280_pressure;Samples;Min_cycle;Max_cycle;Signal;HPM_P1;HPM_P2
2023/05/04 00:01:52;;;;;;;12.80;5.55;;;6.60;99.90;;;;;;4983925;28;20050;-77
2023/05/04 00:04:19;;;;;;;12.95;5.10;;;6.60;99.90;;;;;;5005159;28;20057;-77
2023/05/04 00:06:46;;;;;;;11.80;4.90;;;6.60;99.90;;;;;;4983284;28;20057;-78
2023/05/04 00:09:13;;;;;;;15.32;5.30;;;6.60;99.90;;;;;;4987420;28;20064;-78
2023/05/04 00:11:39;;;;;;;12.98;4.97;;;6.60;99.90;;;;;;5001607;28;20052;-77
2023/05/04 00:14:05;;;;;;;17.13;5.20;;;7.00;99.90;;;;;;4986102;28;20053;-78
2023/05/04 00:16:31;;;;;;;12.50;5.25;;;6.60;99.90;;;;;;5003620;28;20053;-78
2023/05/04 00:18:57;;;;;;;13.00;5.47;;;6.50;99.90;;;;;;4984914;28;20108;-78
2023/05/04 00:21:23;;;;;;;15.23;5.75;;;6.50;99.90;;;;;;4986489;28;20077;-79
2023/05/04 00:23:48;;;;;;;12.80;5.05;;;6.50;99.90;;;;;;4988920;28;20134;-78
2023/05/04 00:26:14;;;;;;;15.98;6.00;;;7.10;99.90;;;;;;4995403;28;20140;-78
2023/05/04 00:28:40;;;;;;;18.42;6.00;;;6.50;99.90;;;;;;4989201;28;20053;-78
2023/05/04 00:31:06;;;;;;;16.60;6.78;;;6.70;99.90;;;;;;5007303;28;20483;-78
2023/05/04 00:33:31;;;;;;;12.45;5.95;;;6.50;99.90;;;;;;4990915;28;20058;-76
2023/05/04 00:35:57;;;;;;;17.27;6.65;;;6.40;99.90;;;;;;5000271;28;20046;-77
2023/05/04 00:38:23;;;;;;;15.25;6.47;;;6.40;99.90;;;;;;5009232;28;20050;-77
2023/05/04 00:40:48;;;;;;;12.25;7.03;;;6.40;99.90;;;;;;5007575;28;20524;-78
2023/05/04 00:43:14;;;;;;;14.73;7.25;;;6.40;99.90;;;;;;5007917;28;20077;-77
2023/05/04 00:45:40;;;;;;;14.40;6.20;;;6.40;99.90;;;;;;5007336;28;20053;-78
2023/05/04 00:48:06;;;;;;;15.80;6.95;;;6.40;99.90;;;;;;5002835;28;20454;-77
2023/05/04 00:50:33;;;;;;;16.10;6.55;;;6.90;99.90;;;;;;4989839;28;20595;-78
2023/05/04 00:53:05;;;;;;;16.08;6.68;;;6.50;99.90;;;;;;5007200;28;20139;-77
2023/05/04 00:55:31;;;;;;;16.88;6.55;;;6.30;99.90;;;;;;5007762;28;20136;-80
2023/05/04 00:57:57;;;;;;;16.75;6.88;;;6.80;99.90;;;;;;5001822;28;20065;-77
2023/05/04 01:00:22;;;;;;;15.70;6.53;;;6.30;99.90;;;;;;4988487;28;20150;-78
2023/05/04 01:02:48;;;;;;;17.05;6.22;;;6.30;99.90;;;;;;4987411;28;20093;-77
2023/05/04 01:05:14;;;;;;;13.30;5.50;;;6.30;99.90;;;;;;5008516;28;20861;-77
2023/05/04 01:08:09;;;;;;;15.43;6.38;;;6.20;99.90;;;;;;4990079;28;20411;-78
2023/05/04 01:11:16;;;;;;;13.20;5.80;;;6.20;99.90;;;;;;5005254;28;20148;-77
2023/05/04 01:13:43;;;;;;;15.15;5.75;;;6.20;99.90;;;;;;5007284;28;20057;-78
2023/05/04 01:16:09;;;;;;;12.95;5.50;;;6.20;99.90;;;;;;5002547;28;20101;-77
2023/05/04 01:18:35;;;;;;;11.63;5.03;;;6.30;99.90;;;;;;4979195;28;20042;-78
2023/05/04 01:21:01;;;;;;;12.70;5.15;;;6.20;99.90;;;;;;5008703;28;20399;-76
2023/05/04 01:23:26;;;;;;;12.63;5.63;;;6.10;99.90;;;;;;5008375;28;20060;-78
2023/05/04 01:26:07;;;;;;;11.52;5.30;;;6.10;99.90;;;;;;4990687;28;20073;-77
2023/05/04 01:28:43;;;;;;;13.10;5.23;;;6.10;99.90;;;;;;5003280;28;20462;-78
2023/05/04 01:31:15;;;;;;;13.73;5.28;;;6.40;99.90;;;;;;4995079;28;20296;-78
2023/05/04 01:33:43;;;;;;;11.23;5.72;;;6.10;99.90;;;;;;5008360;28;20081;-77
2023/05/04 01:36:09;;;;;;;9.68;5.15;;;6.10;99.90;;;;;;5008478;28;20049;-78
2023/05/04 01:38:35;;;;;;;10.73;5.70;;;6.00;99.90;;;;;;5005567;28;20510;-77
2023/05/04 01:41:01;;;;;;;15.68;6.00;;;6.00;99.90;;;;;;5006291;28;20057;-78
2023/05/04 01:43:27;;;;;;;14.23;5.60;;;6.40;99.90;;;;;;5006466;28;20058;-78
2023/05/04 01:45:52;;;;;;;13.10;5.50;;;5.90;99.90;;;;;;4989359;28;20063;-78
2023/05/04 01:48:18;;;;;;;15.25;6.30;;;6.00;99.90;;;;;;5007863;28;20052;-78
2023/05/04 01:50:44;;;;;;;14.30;6.95;;;6.00;99.90;;;;;;5007225;28;20050;-78
2023/05/04 01:53:10;;;;;;;11.55;6.10;;;6.00;99.90;;;;;;5006226;28;20470;-78
2023/05/04 01:55:35;;;;;;;12.43;6.13;;;6.00;99.90;;;;;;5007469;28;20045;-77
2023/05/04 01:58:01;;;;;;;14.63;6.22;;;5.90;99.90;;;;;;5007414;28;20057;-77
2023/05/04 02:00:27;;;;;;;16.92;7.22;;;6.00;99.90;;;;;;5005103;28;20037;-77
2023/05/04 02:02:53;;;;;;;15.55;6.93;;;5.90;99.90;;;;;;5007353;28;20164;-78
2023/05/04 02:05:18;;;;;;;14.82;6.65;;;6.40;99.90;;;;;;5006478;28;20054;-77
2023/05/04 02:07:45;;;;;;;17.50;7.40;;;6.40;99.90;;;;;;5007053;28;20132;-78
2023/05/04 02:10:10;;;;;;;10.95;6.30;;;5.90;99.90;;;;;;5005940;28;20176;-78
2023/05/04 02:12:36;;;;;;;16.98;6.78;;;5.90;99.90;;;;;;4988416;28;20124;-77
2023/05/04 02:15:02;;;;;;;12.65;6.50;;;5.90;99.90;;;;;;4977347;28;20622;-76
2023/05/04 02:17:28;;;;;;;17.13;7.28;;;5.90;99.90;;;;;;4986856;28;20046;-75
2023/05/04 02:19:54;;;;;;;13.30;6.60;;;5.90;99.90;;;;;;4987180;28;20073;-76
2023/05/04 02:22:20;;;;;;;12.25;6.78;;;6.10;99.90;;;;;;5006301;28;20046;-77
2023/05/04 02:24:45;;;;;;;11.48;7.10;;;5.90;99.90;;;;;;5006715;28;20061;-77
2023/05/04 02:27:11;;;;;;;15.07;6.95;;;5.90;99.90;;;;;;5005363;28;20053;-77
2023/05/04 02:29:37;;;;;;;16.92;7.25;;;5.90;99.90;;;;;;4995992;28;20049;-76
2023/05/04 02:32:03;;;;;;;18.00;6.90;;;5.90;99.90;;;;;;4988249;28;20407;-77
2023/05/04 02:34:29;;;;;;;13.10;7.22;;;5.90;99.90;;;;;;5006038;28;20050;-77
2023/05/04 02:36:55;;;;;;;11.95;5.97;;;6.60;99.90;;;;;;5004842;28;20140;-78
2023/05/04 02:39:21;;;;;;;16.40;5.95;;;5.90;99.90;;;;;;5005903;28;20188;-77
2023/05/04 02:41:46;;;;;;;14.45;6.20;;;5.90;99.90;;;;;;4996554;28;20038;-78
2023/05/04 02:44:12;;;;;;;14.10;6.32;;;5.90;99.90;;;;;;5003447;28;20050;-77
2023/05/04 02:46:38;;;;;;;16.48;6.70;;;5.90;99.90;;;;;;5005179;28;20041;-76
2023/05/04 02:49:03;;;;;;;17.33;6.80;;;5.90;99.90;;;;;;5004679;28;20054;-77
2023/05/04 02:51:29;;;;;;;15.98;6.22;;;6.40;99.90;;;;;;5005449;28;20052;-77
2023/05/04 02:53:55;;;;;;;16.15;6.45;;;5.90;99.90;;;;;;5005140;28;20073;-77
2023/05/04 02:56:20;;;;;;;15.75;6.93;;;5.90;99.90;;;;;;4987670;28;20052;-77
2023/05/04 02:58:46;;;;;;;12.60;7.22;;;6.00;99.90;;;;;;5001891;28;20046;-77
2023/05/04 03:01:12;;;;;;;15.75;6.63;;;6.40;99.90;;;;;;4988696;28;20200;-78
2023/05/04 03:03:37;;;;;;;15.07;6.75;;;5.90;99.90;;;;;;5006095;28;20056;-76
2023/05/04 03:06:03;;;;;;;19.95;7.13;;;5.90;99.90;;;;;;5006436;28;20045;-78
2023/05/04 03:08:29;;;;;;;16.25;7.07;;;6.00;99.90;;;;;;5006270;28;20049;-77
2023/05/04 03:10:55;;;;;;;14.93;5.90;;;6.00;99.90;;;;;;5004569;28;20698;-77
2023/05/04 03:13:21;;;;;;;14.18;6.38;;;5.90;99.90;;;;;;5000796;28;20132;-78
2023/05/04 03:15:46;;;;;;;13.52;6.57;;;6.10;99.90;;;;;;5007047;28;20545;-76
2023/05/04 03:18:12;;;;;;;10.43;6.72;;;6.10;99.90;;;;;;5003079;28;20045;-77
2023/05/04 03:20:38;;;;;;;15.55;6.93;;;5.90;99.90;;;;;;5004873;28;20054;-76
2023/05/04 03:23:04;;;;;;;14.82;6.93;;;6.00;99.90;;;;;;5004944;28;20049;-77
2023/05/04 03:25:30;;;;;;;13.32;7.10;;;6.00;99.90;;;;;;5004749;28;20053;-76
2023/05/04 03:27:56;;;;;;;16.30;7.43;;;6.00;99.90;;;;;;5003899;28;20050;-77
2023/05/04 03:30:22;;;;;;;17.20;7.30;;;6.00;99.90;;;;;;5001068;28;20046;-79
2023/05/04 03:32:48;;;;;;;17.77;7.38;;;6.00;99.90;;;;;;5004265;28;20037;-78
2023/05/04 03:35:13;;;;;;;15.73;7.07;;;6.00;99.90;;;;;;4986210;28;20085;-77
2023/05/04 03:37:39;;;;;;;17.17;7.18;;;6.00;99.90;;;;;;4986489;28;20168;-75
2023/05/04 03:40:05;;;;;;;15.80;6.85;;;6.00;99.90;;;;;;4986957;28;20050;-78
2023/05/04 03:42:31;;;;;;;17.00;7.30;;;6.00;99.90;;;;;;4989366;28;20539;-78
2023/05/04 03:44:57;;;;;;;19.20;7.35;;;6.00;99.90;;;;;;5000672;28;20113;-76
2023/05/04 03:47:22;;;;;;;16.70;7.35;;;6.60;99.90;;;;;;5007085;28;20109;-77
2023/05/04 03:49:48;;;;;;;14.57;7.45;;;6.00;99.90;;;;;;5004341;28;20845;-76
2023/05/04 03:52:14;;;;;;;14.63;7.65;;;6.10;99.90;;;;;;5003817;28;20042;-76
2023/05/04 03:54:40;;;;;;;15.05;6.82;;;6.00;99.90;;;;;;5006769;28;20155;-75
2023/05/04 03:57:05;;;;;;;14.23;7.20;;;6.00;99.90;;;;;;5009816;28;20045;-77
2023/05/04 03:59:31;;;;;;;16.13;6.80;;;6.00;99.90;;;;;;5000600;28;20053;-77
2023/05/04 04:01:56;;;;;;;16.45;7.18;;;6.00;99.90;;;;;;5010823;28;20463;-77
2023/05/04 04:04:22;;;;;;;14.38;7.55;;;6.50;99.90;;;;;;4994737;28;20062;-77
2023/05/04 04:06:48;;;;;;;14.15;6.93;;;6.00;99.90;;;;;;5009867;28;20057;-75
2023/05/04 04:09:14;;;;;;;15.60;6.82;;;6.10;99.90;;;;;;5010824;28;20151;-76
2023/05/04 04:11:40;;;;;;;14.60;7.25;;;6.10;99.90;;;;;;4993771;28;20844;-76
2023/05/04 04:14:06;;;;;;;17.27;6.72;;;6.10;99.90;;;;;;5009396;28;20046;-77
2023/05/04 04:16:31;;;;;;;18.08;6.55;;;6.10;99.90;;;;;;5011953;28;20057;-78
2023/05/04 04:18:57;;;;;;;18.88;6.82;;;6.30;99.90;;;;;;4994245;28;20091;-76
2023/05/04 04:21:23;;;;;;;14.93;6.75;;;6.10;99.90;;;;;;5009779;28;20499;-77
2023/05/04 04:23:49;;;;;;;11.93;6.07;;;6.10;99.90;;;;;;5009385;28;20056;-76
2023/05/04 04:26:14;;;;;;;16.45;6.93;;;6.10;99.90;;;;;;5010452;28;20054;-76
2023/05/04 04:28:40;;;;;;;18.90;7.32;;;6.20;99.90;;;;;;5010101;28;20053;-77
2023/05/04 04:31:06;;;;;;;16.17;6.63;;;6.20;99.90;;;;;;5006079;28;20050;-77
2023/05/04 04:33:33;;;;;;;13.85;6.40;;;6.40;99.90;;;;;;5010998;28;20042;-77
2023/05/04 04:35:59;;;;;;;16.92;6.50;;;6.20;99.90;;;;;;5008216;28;20053;-77
2023/05/04 04:38:25;;;;;;;14.52;6.53;;;6.70;99.90;;;;;;5003381;28;20533;-77
2023/05/04 04:40:51;;;;;;;15.75;6.68;;;6.20;99.90;;;;;;4992720;28;20565;-77
2023/05/04 04:43:17;;;;;;;16.20;7.38;;;6.20;99.90;;;;;;5006480;28;20103;-76
2023/05/04 04:45:45;;;;;;;18.08;7.85;;;6.20;99.90;;;;;;5010347;28;20124;-77
2023/05/04 04:48:11;;;;;;;14.45;6.65;;;6.90;99.90;;;;;;5011053;28;20042;-76
2023/05/04 04:50:38;;;;;;;15.75;6.78;;;6.20;99.90;;;;;;5013611;28;20060;-76
2023/05/04 04:53:03;;;;;;;12.13;6.45;;;6.20;99.90;;;;;;5010933;28;20204;-76
2023/05/04 04:55:29;;;;;;;12.57;7.05;;;6.30;99.90;;;;;;5000217;28;20056;-76
2023/05/04 04:57:55;;;;;;;15.18;6.35;;;6.20;99.90;;;;;;5014023;28;20045;-77
2023/05/04 05:00:21;;;;;;;19.13;7.28;;;6.20;99.90;;;;;;5007711;28;20045;-77
2023/05/04 05:02:47;;;;;;;11.98;6.10;;;6.30;99.90;;;;;;4992330;28;20041;-75
2023/05/04 05:05:13;;;;;;;17.30;7.18;;;6.30;99.90;;;;;;5009233;28;20880;-76
2023/05/04 05:07:39;;;;;;;13.23;6.10;;;6.50;99.90;;;;;;4998948;28;20066;-76
2023/05/04 05:10:05;;;;;;;12.32;6.55;;;6.60;99.90;;;;;;5005131;28;20521;-77
2023/05/04 05:12:31;;;;;;;15.43;6.47;;;6.40;99.90;;;;;;5007160;28;20042;-75
2023/05/04 05:14:56;;;;;;;16.05;7.00;;;6.40;99.90;;;;;;4989076;28;20553;-77
2023/05/04 05:17:22;;;;;;;16.83;7.45;;;6.40;99.90;;;;;;5002732;28;20064;-77
2023/05/04 05:19:48;;;;;;;16.20;8.15;;;6.40;99.90;;;;;;5009126;28;20077;-77
2023/05/04 05:22:15;;;;;;;16.38;7.30;;;6.50;99.90;;;;;;5005519;28;20045;-76
2023/05/04 05:24:41;;;;;;;17.23;7.45;;;6.70;99.90;;;;;;4983969;28;20699;-77
2023/05/04 05:27:07;;;;;;;13.15;7.22;;;6.40;99.90;;;;;;5004522;28;20045;-77
2023/05/04 05:29:32;;;;;;;12.57;7.05;;;6.40;99.90;;;;;;5006663;28;20045;-77
2023/05/04 05:31:58;;;;;;;14.30;6.82;;;6.50;99.90;;;;;;4986678;28;21648;-78
2023/05/04 05:34:24;;;;;;;14.02;7.63;;;6.50;99.90;;;;;;4994749;28;20116;-77
2023/05/04 05:36:51;;;;;;;14.70;7.07;;;6.50;99.90;;;;;;5003992;28;20060;-77
2023/05/04 05:39:16;;;;;;;14.68;6.88;;;6.50;99.90;;;;;;5003140;28;20581;-77
2023/05/04 05:41:42;;;;;;;18.27;8.40;;;6.60;99.90;;;;;;5006093;28;20064;-78
2023/05/04 05:44:08;;;;;;;26.42;7.88;;;6.60;99.90;;;;;;4988703;28;20053;-77
2023/05/04 05:46:34;;;;;;;16.77;7.20;;;6.60;99.90;;;;;;5005932;28;20089;-77
2023/05/04 05:49:00;;;;;;;19.10;7.45;;;6.70;99.90;;;;;;4989491;28;20046;-78
2023/05/04 05:51:25;;;;;;;15.90;7.10;;;7.10;99.90;;;;;;5005650;28;20056;-76
2023/05/04 05:53:51;;;;;;;17.63;7.72;;;6.70;99.90;;;;;;5005305;28;20046;-78
2023/05/04 05:56:17;;;;;;;22.27;8.32;;;6.80;99.90;;;;;;5005352;28;20131;-78
2023/05/04 05:58:42;;;;;;;14.25;6.97;;;6.80;99.90;;;;;;5005341;28;20042;-78
2023/05/04 06:01:08;;;;;;;14.25;7.07;;;7.10;99.90;;;;;;5005865;28;20071;-76
2023/05/04 06:03:34;;;;;;;19.70;7.40;;;6.90;99.90;;;;;;4988837;28;20065;-78
2023/05/04 06:05:59;;;;;;;18.50;8.30;;;7.00;99.90;;;;;;5003658;28;20062;-78
2023/05/04 06:08:25;;;;;;;15.68;6.68;;;7.00;99.90;;;;;;5005166;28;20514;-76
2023/05/04 06:10:51;;;;;;;15.20;7.53;;;7.30;99.90;;;;;;5003548;28;20053;-78
2023/05/04 06:13:17;;;;;;;17.35;8.00;;;7.10;99.90;;;;;;4994074;28;20048;-76
2023/05/04 06:15:52;;;;;;;20.52;7.20;;;7.20;99.90;;;;;;4989906;28;20136;-77
2023/05/04 06:18:19;;;;;;;14.50;7.03;;;7.20;99.90;;;;;;5002042;28;20054;-76
2023/05/04 06:20:45;;;;;;;15.27;7.47;;;7.30;99.90;;;;;;4981369;28;20825;-78
2023/05/04 06:23:11;;;;;;;19.70;7.05;;;7.30;99.90;;;;;;5003600;28;20121;-77
2023/05/04 06:25:36;;;;;;;15.82;7.20;;;7.40;99.90;;;;;;5006464;28;20119;-76
2023/05/04 06:28:02;;;;;;;16.13;6.82;;;7.40;99.90;;;;;;5006334;28;20058;-76
2023/05/04 06:30:28;;;;;;;15.77;7.75;;;7.50;99.90;;;;;;5006773;28;20061;-78
2023/05/04 06:32:54;;;;;;;16.65;7.43;;;7.60;99.90;;;;;;5005988;28;20049;-76
2023/05/04 06:35:23;;;;;;;16.73;6.60;;;7.70;99.90;;;;;;4984663;28;20046;-75
2023/05/04 06:37:50;;;;;;;16.80;7.65;;;7.70;99.90;;;;;;4995037;28;20091;-76
2023/05/04 06:40:16;;;;;;;13.88;6.45;;;8.10;99.90;;;;;;5005727;28;20115;-77
2023/05/04 06:42:41;;;;;;;14.82;7.78;;;7.80;99.90;;;;;;5005213;28;20587;-77
2023/05/04 06:45:08;;;;;;;16.23;7.05;;;7.90;99.90;;;;;;5005555;28;20050;-78
2023/05/04 06:47:36;;;;;;;16.50;6.78;;;8.00;99.90;;;;;;5005073;28;20057;-78
2023/05/04 06:50:08;;;;;;;14.57;7.55;;;8.10;99.90;;;;;;5003732;28;20453;-77
2023/05/04 06:52:34;;;;;;;16.42;6.75;;;8.10;99.90;;;;;;5002858;28;20054;-78
2023/05/04 06:55:00;;;;;;;17.05;6.95;;;8.10;99.90;;;;;;5004500;28;20085;-79
2023/05/04 06:57:28;;;;;;;19.38;6.65;;;7.90;99.90;;;;;;5007116;28;20135;-79
2023/05/04 06:59:53;;;;;;;16.85;7.10;;;8.30;99.90;;;;;;5005317;28;20045;-78
2023/05/04 07:02:19;;;;;;;21.20;6.50;;;8.40;99.90;;;;;;4987898;28;20060;-79
2023/05/04 07:04:45;;;;;;;12.75;6.50;;;8.40;99.90;;;;;;4984679;28;20057;-77
2023/05/04 07:07:11;;;;;;;14.85;6.57;;;8.50;99.90;;;;;;5006921;28;20534;-77
2023/05/04 07:09:36;;;;;;;17.55;7.20;;;8.60;99.90;;;;;;5003276;28;20104;-76
2023/05/04 07:12:03;;;;;;;18.60;6.53;;;8.70;99.90;;;;;;5001168;28;20038;-78
2023/05/04 07:14:29;;;;;;;17.08;7.15;;;8.70;99.90;;;;;;5004898;28;20049;-77
2023/05/04 07:16:55;;;;;;;16.35;6.63;;;8.80;99.90;;;;;;5002384;28;20415;-77
2023/05/04 07:19:20;;;;;;;17.83;7.47;;;8.90;99.90;;;;;;4989093;28;20056;-79
2023/05/04 07:21:46;;;;;;;18.15;6.95;;;9.10;99.90;;;;;;5004561;28;20540;-78
2023/05/04 07:24:12;;;;;;;16.90;6.20;;;9.00;99.90;;;;;;4994777;28;20046;-78
2023/05/04 07:26:37;;;;;;;16.15;6.90;;;9.10;99.90;;;;;;5002802;28;20164;-78
2023/05/04 07:29:03;;;;;;;13.05;6.15;;;9.20;99.90;;;;;;4982009;28;20108;-78
2023/05/04 07:31:29;;;;;;;15.32;6.28;;;9.20;99.90;;;;;;5004123;28;20042;-79
2023/05/04 07:33:54;;;;;;;14.00;6.65;;;9.30;99.90;;;;;;4988472;28;20045;-78
2023/05/04 07:36:21;;;;;;;14.05;6.20;;;9.30;99.90;;;;;;5003221;28;20048;-77
2023/05/04 07:38:46;;;;;;;14.80;6.47;;;9.40;99.90;;;;;;5004214;28;20180;-78
2023/05/04 07:41:12;;;;;;;14.32;5.78;;;9.40;99.90;;;;;;5004343;28;20148;-77
2023/05/04 07:43:38;;;;;;;13.07;6.30;;;9.50;99.90;;;;;;5000806;28;20042;-77
2023/05/04 07:46:03;;;;;;;17.58;6.57;;;9.60;99.90;;;;;;4994141;28;20097;-76
2023/05/04 07:48:29;;;;;;;13.20;6.13;;;9.60;99.90;;;;;;5004362;28;20721;-78
2023/05/04 07:50:55;;;;;;;15.10;5.90;;;9.70;99.90;;;;;;4988382;28;20073;-79
2023/05/04 07:53:20;;;;;;;14.80;6.20;;;9.80;99.90;;;;;;4997090;28;20077;-77
2023/05/04 07:55:47;;;;;;;11.95;6.20;;;9.90;99.90;;;;;;5003296;28;20066;-77
2023/05/04 07:58:14;;;;;;;14.38;6.15;;;10.00;99.90;;;;;;5002878;28;20037;-78
2023/05/04 08:00:40;;;;;;;13.80;6.35;;;10.10;99.90;;;;;;4991141;28;20137;-78
2023/05/04 08:03:06;;;;;;;10.93;5.53;;;10.20;99.90;;;;;;4983038;28;20179;-78
2023/05/04 08:05:31;;;;;;;18.55;6.38;;;10.20;99.90;;;;;;5001918;28;20092;-80
2023/05/04 08:07:57;;;;;;;14.20;5.88;;;10.60;99.90;;;;;;5004286;28;20065;-79
2023/05/04 08:10:23;;;;;;;12.02;5.50;;;10.40;99.90;;;;;;5000648;28;20181;-78
2023/05/04 08:12:48;;;;;;;15.05;6.38;;;10.50;99.90;;;;;;5003048;28;20053;-77
2023/05/04 08:15:15;;;;;;;15.63;5.70;;;10.60;99.90;;;;;;4986792;28;20641;-77
2023/05/04 08:17:41;;;;;;;14.05;6.45;;;10.60;99.90;;;;;;5002651;28;20141;-77
2023/05/04 08:20:08;;;;;;;14.80;5.60;;;10.70;99.90;;;;;;5001980;28;20125;-78
2023/05/04 08:22:34;;;;;;;17.08;5.97;;;10.70;99.90;;;;;;4999125;28;20051;-78
2023/05/04 08:24:59;;;;;;;12.70;5.95;;;10.80;99.90;;;;;;4997191;28;20476;-76
2023/05/04 08:27:25;;;;;;;11.18;5.80;;;10.80;99.90;;;;;;4998272;28;20837;-77
2023/05/04 08:29:51;;;;;;;16.45;5.88;;;10.90;99.90;;;;;;4995227;28;20049;-78
2023/05/04 08:32:17;;;;;;;12.05;6.00;;;10.90;99.90;;;;;;5002042;28;20116;-77
2023/05/04 08:34:43;;;;;;;15.88;5.95;;;11.00;99.90;;;;;;4994142;28;20097;-79
2023/05/04 08:37:08;;;;;;;12.35;5.60;;;11.00;99.90;;;;;;5002436;28;20073;-77
2023/05/04 08:39:34;;;;;;;13.98;5.63;;;11.20;99.90;;;;;;5004018;28;20057;-76
2023/05/04 08:42:01;;;;;;;14.00;5.57;;;11.30;99.90;;;;;;5004496;28;20122;-76
2023/05/04 08:44:28;;;;;;;15.13;6.15;;;11.40;99.90;;;;;;5004943;28;20582;-76
2023/05/04 08:46:55;;;;;;;9.98;5.13;;;11.50;99.90;;;;;;5009492;28;20088;-77
2023/05/04 08:49:22;;;;;;;12.32;6.40;;;11.60;99.90;;;;;;5007261;28;20085;-78
2023/05/04 08:51:49;;;;;;;13.10;5.60;;;11.90;99.90;;;;;;5009831;28;20072;-79
2023/05/04 08:54:16;;;;;;;13.52;5.50;;;11.70;99.90;;;;;;4990653;28;20057;-75
2023/05/04 08:56:44;;;;;;;10.57;5.38;;;11.80;99.90;;;;;;5002969;28;20037;-78
2023/05/04 08:59:19;;;;;;;13.73;5.75;;;12.10;99.90;;;;;;5006285;28;20052;-76
2023/05/04 09:01:53;;;;;;;12.60;5.53;;;12.00;99.90;;;;;;4998441;28;20252;-76
2023/05/04 09:04:21;;;;;;;13.57;6.18;;;12.10;99.90;;;;;;4989618;28;20081;-76
2023/05/04 09:06:47;;;;;;;9.85;5.22;;;12.10;99.90;;;;;;5002254;28;20143;-77
2023/05/04 09:09:13;;;;;;;13.73;5.13;;;12.20;99.90;;;;;;5001434;28;20555;-74
2023/05/04 09:11:39;;;;;;;11.40;5.50;;;12.20;99.90;;;;;;4988045;28;20050;-76
2023/05/04 09:14:05;;;;;;;19.70;6.28;;;12.30;99.90;;;;;;5000891;28;20729;-76
2023/05/04 09:16:37;;;;;;;13.98;5.80;;;12.30;99.90;;;;;;5006952;28;20045;-76
2023/05/04 09:19:17;;;;;;;12.23;4.93;;;12.30;99.90;;;;;;5006122;28;20052;-73
2023/05/04 09:21:43;;;;;;;11.98;5.32;;;12.40;99.90;;;;;;4991964;28;20045;-75
2023/05/04 09:24:09;;;;;;;13.63;6.25;;;12.50;99.90;;;;;;5006228;28;20038;-76
2023/05/04 09:26:35;;;;;;;13.68;6.15;;;12.60;99.90;;;;;;5007414;28;20144;-75
2023/05/04 09:29:14;;;;;;;13.18;5.32;;;12.60;99.90;;;;;;5007439;28;20053;-75
2023/05/04 09:31:43;;;;;;;15.70;5.43;;;12.60;99.90;;;;;;5006213;28;20448;-75
2023/05/04 09:34:09;;;;;;;11.98;5.22;;;12.70;99.90;;;;;;5006819;28;20753;-74
2023/05/04 09:36:35;;;;;;;12.85;5.97;;;12.80;99.90;;;;;;5004452;28;20053;-75
2023/05/04 09:39:10;;;;;;;13.35;5.07;;;12.80;99.90;;;;;;5005360;28;20057;-76
2023/05/04 09:41:36;;;;;;;9.93;5.15;;;12.90;99.90;;;;;;5006016;28;20124;-75
2023/05/04 09:44:03;;;;;;;11.68;4.68;;;13.00;99.90;;;;;;5006341;28;20703;-74
2023/05/04 09:46:29;;;;;;;9.63;5.03;;;13.20;99.90;;;;;;5005307;28;20064;-76
2023/05/04 09:48:55;;;;;;;11.02;4.78;;;13.20;99.90;;;;;;5005261;28;20462;-75
2023/05/04 09:51:26;;;;;;;15.68;5.28;;;13.30;99.90;;;;;;4998904;28;20046;-77
2023/05/04 09:53:52;;;;;;;11.93;4.70;;;13.40;99.90;;;;;;4997355;28;20046;-75
2023/05/04 09:56:26;;;;;;;16.80;4.72;;;13.40;99.90;;;;;;5006014;28;20510;-76
2023/05/04 09:58:55;;;;;;;12.00;4.82;;;13.50;99.90;;;;;;5014715;28;20084;-75
2023/05/04 10:01:21;;;;;;;10.10;5.13;;;13.60;99.90;;;;;;5002439;28;20709;-74
2023/05/04 10:03:47;;;;;;;11.70;4.35;;;13.70;99.90;;;;;;5002610;28;20061;-74
2023/05/04 10:06:13;;;;;;;15.00;5.25;;;13.70;99.90;;;;;;4996374;28;20045;-75
2023/05/04 10:08:40;;;;;;;10.88;4.57;;;13.70;99.90;;;;;;4998076;28;20057;-74
2023/05/04 10:11:07;;;;;;;9.98;4.63;;;13.90;99.90;;;;;;4997188;28;20758;-75
2023/05/04 10:13:33;;;;;;;13.00;4.80;;;13.80;99.90;;;;;;4999112;28;20403;-75
2023/05/04 10:16:23;;;;;;;8.00;4.10;;;13.80;99.90;;;;;;4981917;28;20045;-74
2023/05/04 10:19:08;;;;;;;13.18;4.97;;;13.80;99.90;;;;;;5002627;28;20124;-77
2023/05/04 10:21:49;;;;;;;12.13;4.47;;;13.80;99.90;;;;;;4999643;28;20050;-74
2023/05/04 10:24:34;;;;;;;8.02;4.20;;;13.90;99.90;;;;;;4979062;28;20053;-75
2023/05/04 10:27:12;;;;;;;11.27;4.40;;;14.00;99.90;;;;;;5001342;28;20132;-75
2023/05/04 10:29:39;;;;;;;11.70;4.38;;;14.10;99.90;;;;;;4997478;28;20065;-75
2023/05/04 10:32:20;;;;;;;8.52;3.75;;;14.20;99.90;;;;;;4999524;28;20686;-74
2023/05/04 10:34:46;;;;;;;10.73;4.60;;;14.20;99.90;;;;;;4994362;28;20077;-75
2023/05/04 10:37:20;;;;;;;9.75;4.13;;;14.40;99.90;;;;;;4997790;28;20515;-75
2023/05/04 10:39:53;;;;;;;13.13;5.15;;;14.40;99.90;;;;;;5002713;28;20038;-74
2023/05/04 10:42:20;;;;;;;9.00;4.28;;;14.40;99.90;;;;;;4997783;28;20057;-74
2023/05/04 10:44:54;;;;;;;10.65;4.80;;;14.50;99.90;;;;;;4998051;28;20038;-75
2023/05/04 10:47:34;;;;;;;20.00;4.95;;;14.60;99.90;;;;;;4995203;28;20061;-75
2023/05/04 10:50:05;;;;;;;12.45;4.45;;;14.60;99.90;;;;;;4997343;28;20042;-75
2023/05/04 10:52:43;;;;;;;10.77;4.13;;;14.70;99.90;;;;;;5000409;28;20034;-74
2023/05/04 10:55:09;;;;;;;8.98;4.35;;;14.80;99.90;;;;;;4998919;28;20462;-75
2023/05/04 10:57:55;;;;;;;10.68;4.30;;;14.80;99.90;;;;;;4996919;28;20074;-74
2023/05/04 11:00:21;;;;;;;12.38;4.57;;;14.80;99.90;;;;;;4998680;28;20041;-76
2023/05/04 11:02:48;;;;;;;13.85;5.05;;;14.90;99.90;;;;;;5001348;28;20116;-74
2023/05/04 11:05:18;;;;;;;13.23;4.80;;;14.90;99.90;;;;;;5000008;28;20131;-75
2023/05/04 11:07:44;;;;;;;12.15;4.28;;;15.00;99.90;;;;;;4998027;28;20050;-74
2023/05/04 11:10:23;;;;;;;10.02;4.43;;;15.10;99.90;;;;;;5000199;28;20511;-75
2023/05/04 11:12:50;;;;;;;14.95;5.28;;;15.10;99.90;;;;;;4997345;28;20380;-74
2023/05/04 11:15:16;;;;;;;13.25;5.00;;;15.20;99.90;;;;;;4999878;28;20044;-73
2023/05/04 11:17:46;;;;;;;9.43;4.35;;;15.30;99.90;;;;;;5005280;28;20050;-74
2023/05/04 11:20:21;;;;;;;12.45;4.60;;;15.40;99.90;;;;;;5000069;28;20577;-73
2023/05/04 11:22:48;;;;;;;11.63;4.20;;;15.50;99.90;;;;;;4987689;28;20049;-74
2023/05/04 11:25:15;;;;;;;12.23;4.47;;;15.50;99.90;;;;;;4988273;28;20558;-74
2023/05/04 11:27:42;;;;;;;11.27;4.63;;;15.60;99.90;;;;;;4983428;28;20064;-74
2023/05/04 11:30:08;;;;;;;9.48;4.10;;;15.70;99.90;;;;;;4997833;28;20127;-73
2023/05/04 11:32:36;;;;;;;11.80;4.78;;;15.80;99.90;;;;;;4996458;28;20104;-76
2023/05/04 11:35:04;;;;;;;11.65;4.28;;;15.90;99.90;;;;;;4996973;28;20708;-75
2023/05/04 11:37:36;;;;;;;10.88;4.00;;;15.90;99.90;;;;;;4995770;28;20049;-74
2023/05/04 11:40:06;;;;;;;11.48;4.38;;;16.00;99.90;;;;;;4998643;28;20053;-72
2023/05/04 11:42:32;;;;;;;12.93;4.85;;;16.10;99.90;;;;;;4998272;28;20049;-74
2023/05/04 11:44:58;;;;;;;13.63;4.97;;;16.10;99.90;;;;;;4996934;28;20041;-72
2023/05/04 11:47:25;;;;;;;9.65;4.25;;;16.20;99.90;;;;;;4978594;28;20046;-72
2023/05/04 11:49:51;;;;;;;12.93;5.03;;;16.30;99.90;;;;;;4998148;28;20494;-75
2023/05/04 11:52:23;;;;;;;11.55;4.63;;;16.30;99.90;;;;;;4981110;28;20038;-70
2023/05/04 11:54:58;;;;;;;10.80;4.60;;;16.40;99.90;;;;;;4999272;28;20052;-75
2023/05/04 11:57:24;;;;;;;11.80;5.00;;;16.40;99.90;;;;;;5001582;28;20054;-75
2023/05/04 11:59:50;;;;;;;9.05;4.55;;;16.50;99.90;;;;;;4995280;28;20436;-75
2023/05/04 12:02:16;;;;;;;11.25;4.97;;;16.60;99.90;;;;;;4980084;28;20634;-73
2023/05/04 12:04:42;;;;;;;12.15;4.68;;;16.60;99.90;;;;;;4998053;28;20092;-74
2023/05/04 12:07:08;;;;;;;12.23;4.60;;;16.60;99.90;;;;;;4985276;28;20049;-75
2023/05/04 12:09:49;;;;;;;10.52;4.40;;;16.70;99.90;;;;;;4986088;28;20132;-74
2023/05/04 12:12:20;;;;;;;10.82;4.50;;;16.80;99.90;;;;;;4978508;28;20038;-74
2023/05/04 12:14:50;;;;;;;10.35;4.18;;;16.80;98.80;;;;;;4985225;28;20050;-71
2023/05/04 12:17:19;;;;;;;11.43;4.72;;;16.80;99.90;;;;;;5001593;28;20078;-74
2023/05/04 12:19:55;;;;;;;8.43;4.15;;;16.80;99.80;;;;;;4988762;28;20050;-72
2023/05/04 12:22:32;;;;;;;8.77;4.40;;;16.90;99.80;;;;;;5004843;28;20054;-75
2023/05/04 12:24:58;;;;;;;9.40;4.80;;;16.90;99.60;;;;;;5001915;28;20046;-74
2023/05/04 12:27:25;;;;;;;14.05;4.40;;;17.00;99.90;;;;;;4999202;28;20049;-76
2023/05/04 12:29:51;;;;;;;13.65;5.18;;;17.00;99.40;;;;;;4990061;28;20112;-76
2023/05/04 12:32:17;;;;;;;11.93;4.53;;;17.00;98.50;;;;;;4984033;28;20033;-75
2023/05/04 12:34:43;;;;;;;9.70;4.72;;;17.10;98.70;;;;;;5003427;28;20057;-75
2023/05/04 12:37:10;;;;;;;10.40;4.43;;;17.10;99.70;;;;;;4983057;28;20049;-75
2023/05/04 12:39:36;;;;;;;14.48;4.93;;;17.20;99.60;;;;;;4999343;28;20054;-75
2023/05/04 12:42:05;;;;;;;10.57;4.68;;;17.30;98.70;;;;;;4987044;28;20225;-75
2023/05/04 12:44:32;;;;;;;10.43;4.60;;;17.30;99.60;;;;;;5015998;28;20088;-75